Moree Airport

Airport
ICAO code: 
YMOR
IATA Code: 
MRZ
Summary
ICAO Region: 
APAC
Territory: 
Location: 
Moree, New South Wales
Serving: 
Moree
Elevation: 
701 ft
Coordinates: 
Aerial View: 
29° 29' 51.67" S, 149° 50' 34.856" E
Metar
Observation
YMOR 281400Z AUTO 06011KT 9999 // SCT043 SCT054 BKN066 21/15 Q1016
Station
Moree Airport
Date/Time
2021-11-28 14:00:00
Wind direction
60°
Wind speed
11 kts
Lowest cloud amount
scattered clouds
Temperature
21°C
Dew point
15°C
Humidity
68%
QNH
1016 hPa
Weather condition
n/a

Moree Airport is an airport in Moree, New South Wales, Australia. The airport is 5 km from the city center.

Climatology

Humid “subtropical” climate (Köppen climate classification Cfa)

Runways

Designator Length Width Surface Rops
5/23 977 18 GVL Yes/Yes
1/19 1613 30 ASP Yes/Yes
Airport map: 
Aerial View: 

SKYbrary Partners:

Safety knowledge contributed by: